sensor_id;sensor_type;location;lat;lon;timestamp;pressure;altitude;pressure_sealevel;temperature;humidity
74631;BME280;63138;55.082;38.804;2023-04-24T00:01:51;99957.06;;;9.24;45.22
74631;BME280;63138;55.082;38.804;2023-04-24T00:04:20;99960.97;;;9.21;45.69
74631;BME280;63138;55.082;38.804;2023-04-24T00:06:46;99948.25;;;9.13;45.57
74631;BME280;63138;55.082;38.804;2023-04-24T00:09:23;99947.59;;;9.11;46.03
74631;BME280;63138;55.082;38.804;2023-04-24T00:12:16;99957.03;;;9.07;46.30
74631;BME280;63138;55.082;38.804;2023-04-24T00:14:43;99950.44;;;9.02;46.36
74631;BME280;63138;55.082;38.804;2023-04-24T00:17:11;99949.75;;;8.99;45.97
74631;BME280;63138;55.082;38.804;2023-04-24T00:19:38;99956.53;;;8.95;46.65
74631;BME280;63138;55.082;38.804;2023-04-24T00:22:55;99957.16;;;8.89;46.75
74631;BME280;63138;55.082;38.804;2023-04-24T00:25:24;99949.25;;;8.88;46.83
74631;BME280;63138;55.082;38.804;2023-04-24T00:27:51;99942.59;;;8.82;46.78
74631;BME280;63138;55.082;38.804;2023-04-24T00:30:42;99946.34;;;8.81;46.33
74631;BME280;63138;55.082;38.804;2023-04-24T00:33:09;99950.91;;;8.80;46.61
74631;BME280;63138;55.082;38.804;2023-04-24T00:35:36;99951.22;;;8.77;46.59
74631;BME280;63138;55.082;38.804;2023-04-24T00:38:02;99950.88;;;8.72;46.85
74631;BME280;63138;55.082;38.804;2023-04-24T00:40:28;99960.00;;;8.71;47.21
74631;BME280;63138;55.082;38.804;2023-04-24T00:42:55;99941.00;;;8.55;47.36
74631;BME280;63138;55.082;38.804;2023-04-24T00:45:21;99952.19;;;8.60;47.43
74631;BME280;63138;55.082;38.804;2023-04-24T00:47:48;99956.59;;;8.61;47.36
74631;BME280;63138;55.082;38.804;2023-04-24T00:50:39;99965.69;;;8.52;47.94
74631;BME280;63138;55.082;38.804;2023-04-24T00:53:05;99962.56;;;8.38;48.42
74631;BME280;63138;55.082;38.804;2023-04-24T00:55:32;99951.34;;;8.25;49.50
74631;BME280;63138;55.082;38.804;2023-04-24T00:57:59;99960.72;;;8.13;49.98
74631;BME280;63138;55.082;38.804;2023-04-24T01:00:32;99963.53;;;8.03;50.32
74631;BME280;63138;55.082;38.804;2023-04-24T01:03:00;99965.38;;;7.94;50.99
74631;BME280;63138;55.082;38.804;2023-04-24T01:05:27;99948.09;;;7.87;51.36
74631;BME280;63138;55.082;38.804;2023-04-24T01:07:54;99961.06;;;7.83;51.00
74631;BME280;63138;55.082;38.804;2023-04-24T01:10:22;99956.34;;;7.85;50.50
74631;BME280;63138;55.082;38.804;2023-04-24T01:12:51;99959.66;;;7.79;51.07
74631;BME280;63138;55.082;38.804;2023-04-24T01:15:19;99949.72;;;7.80;50.75
74631;BME280;63138;55.082;38.804;2023-04-24T01:17:45;99954.34;;;7.88;49.92
74631;BME280;63138;55.082;38.804;2023-04-24T01:20:13;99946.91;;;7.90;49.55
74631;BME280;63138;55.082;38.804;2023-04-24T01:22:59;99955.25;;;7.96;49.47
74631;BME280;63138;55.082;38.804;2023-04-24T01:25:27;99947.97;;;7.97;49.52
74631;BME280;63138;55.082;38.804;2023-04-24T01:27:56;99956.59;;;8.00;48.98
74631;BME280;63138;55.082;38.804;2023-04-24T01:30:22;99954.22;;;7.97;48.63
74631;BME280;63138;55.082;38.804;2023-04-24T01:32:51;99954.38;;;7.96;48.25
74631;BME280;63138;55.082;38.804;2023-04-24T01:35:17;99954.56;;;7.94;49.12
74631;BME280;63138;55.082;38.804;2023-04-24T01:37:49;99954.34;;;7.88;49.01
74631;BME280;63138;55.082;38.804;2023-04-24T01:40:22;99947.72;;;7.82;48.88
74631;BME280;63138;55.082;38.804;2023-04-24T01:42:48;99953.56;;;7.77;49.47
74631;BME280;63138;55.082;38.804;2023-04-24T01:45:15;99948.50;;;7.74;49.52
74631;BME280;63138;55.082;38.804;2023-04-24T01:47:41;99950.19;;;7.75;49.59
74631;BME280;63138;55.082;38.804;2023-04-24T01:50:08;99949.19;;;7.76;49.51
74631;BME280;63138;55.082;38.804;2023-04-24T01:52:38;99948.84;;;7.79;48.92
74631;BME280;63138;55.082;38.804;2023-04-24T01:55:05;99955.44;;;7.77;49.27
74631;BME280;63138;55.082;38.804;2023-04-24T01:57:32;99955.91;;;7.72;49.34
74631;BME280;63138;55.082;38.804;2023-04-24T01:59:59;99955.22;;;7.70;49.83
74631;BME280;63138;55.082;38.804;2023-04-24T02:02:25;99953.69;;;7.68;49.78
74631;BME280;63138;55.082;38.804;2023-04-24T02:04:53;99961.41;;;7.62;50.05
74631;BME280;63138;55.082;38.804;2023-04-24T02:07:20;99962.06;;;7.56;50.05
74631;BME280;63138;55.082;38.804;2023-04-24T02:09:46;99952.09;;;7.57;49.49
74631;BME280;63138;55.082;38.804;2023-04-24T02:12:14;99962.47;;;7.70;49.00
74631;BME280;63138;55.082;38.804;2023-04-24T02:14:40;99960.38;;;7.81;48.63
74631;BME280;63138;55.082;38.804;2023-04-24T02:17:09;99959.97;;;7.94;48.34
74631;BME280;63138;55.082;38.804;2023-04-24T02:19:38;99959.84;;;8.04;48.34
74631;BME280;63138;55.082;38.804;2023-04-24T02:22:12;99958.41;;;8.18;47.93
74631;BME280;63138;55.082;38.804;2023-04-24T02:24:38;99969.66;;;8.39;47.44
74631;BME280;63138;55.082;38.804;2023-04-24T02:27:06;99967.38;;;8.53;46.52
74631;BME280;63138;55.082;38.804;2023-04-24T02:29:32;99968.13;;;8.71;46.60
74631;BME280;63138;55.082;38.804;2023-04-24T02:31:58;99973.94;;;8.85;45.04
74631;BME280;63138;55.082;38.804;2023-04-24T02:34:24;99979.91;;;9.05;45.44
74631;BME280;63138;55.082;38.804;2023-04-24T02:36:50;99962.00;;;9.20;43.65
74631;BME280;63138;55.082;38.804;2023-04-24T02:39:16;99970.44;;;9.42;43.23
74631;BME280;63138;55.082;38.804;2023-04-24T02:41:43;99977.41;;;9.52;43.79
74631;BME280;63138;55.082;38.804;2023-04-24T02:44:09;99977.09;;;9.64;43.04
74631;BME280;63138;55.082;38.804;2023-04-24T02:46:36;99976.03;;;9.32;44.64
74631;BME280;63138;55.082;38.804;2023-04-24T02:49:02;99982.72;;;8.87;45.97
74631;BME280;63138;55.082;38.804;2023-04-24T02:51:29;99980.28;;;8.67;45.72
74631;BME280;63138;55.082;38.804;2023-04-24T02:53:55;99979.25;;;8.52;47.22
74631;BME280;63138;55.082;38.804;2023-04-24T02:56:21;99982.16;;;8.40;47.48
74631;BME280;63138;55.082;38.804;2023-04-24T02:58:47;99975.88;;;8.32;48.06
74631;BME280;63138;55.082;38.804;2023-04-24T03:01:14;99980.06;;;8.26;48.46
74631;BME280;63138;55.082;38.804;2023-04-24T03:03:40;99985.47;;;8.26;48.49
74631;BME280;63138;55.082;38.804;2023-04-24T03:06:06;99977.88;;;8.21;48.09
74631;BME280;63138;55.082;38.804;2023-04-24T03:08:57;99990.88;;;8.26;48.36
74631;BME280;63138;55.082;38.804;2023-04-24T03:11:25;99987.88;;;8.29;47.87
74631;BME280;63138;55.082;38.804;2023-04-24T03:13:55;99989.75;;;8.29;48.81
74631;BME280;63138;55.082;38.804;2023-04-24T03:16:20;99992.75;;;8.26;48.63
74631;BME280;63138;55.082;38.804;2023-04-24T03:18:47;100000.72;;;8.27;48.13
74631;BME280;63138;55.082;38.804;2023-04-24T03:21:14;99997.69;;;8.30;48.11
74631;BME280;63138;55.082;38.804;2023-04-24T03:23:43;99992.97;;;8.32;48.25
74631;BME280;63138;55.082;38.804;2023-04-24T03:26:09;100002.44;;;8.36;48.39
74631;BME280;63138;55.082;38.804;2023-04-24T03:28:54;99996.09;;;8.46;47.73
74631;BME280;63138;55.082;38.804;2023-04-24T03:31:20;99994.44;;;8.53;47.19
74631;BME280;63138;55.082;38.804;2023-04-24T03:33:47;99989.41;;;8.58;47.78
74631;BME280;63138;55.082;38.804;2023-04-24T03:36:14;100000.94;;;8.68;46.90
74631;BME280;63138;55.082;38.804;2023-04-24T03:38:41;100004.53;;;8.77;47.14
74631;BME280;63138;55.082;38.804;2023-04-24T03:41:21;100001.84;;;8.77;48.20
74631;BME280;63138;55.082;38.804;2023-04-24T03:43:53;100004.19;;;8.80;47.48
74631;BME280;63138;55.082;38.804;2023-04-24T03:46:19;100007.25;;;8.85;47.48
74631;BME280;63138;55.082;38.804;2023-04-24T03:49:12;99999.69;;;8.97;46.91
74631;BME280;63138;55.082;38.804;2023-04-24T03:51:42;100007.50;;;9.08;46.84
74631;BME280;63138;55.082;38.804;2023-04-24T03:54:31;100010.75;;;9.20;46.40
74631;BME280;63138;55.082;38.804;2023-04-24T03:57:00;99998.22;;;9.27;45.67
74631;BME280;63138;55.082;38.804;2023-04-24T03:59:29;100011.63;;;9.37;45.37
74631;BME280;63138;55.082;38.804;2023-04-24T04:02:33;100013.31;;;9.46;45.26
74631;BME280;63138;55.082;38.804;2023-04-24T04:05:00;100009.94;;;9.52;44.98
74631;BME280;63138;55.082;38.804;2023-04-24T04:07:54;100021.13;;;9.66;44.84
74631;BME280;63138;55.082;38.804;2023-04-24T04:10:24;100021.47;;;9.79;44.12
74631;BME280;63138;55.082;38.804;2023-04-24T04:12:52;100026.22;;;9.85;44.07
74631;BME280;63138;55.082;38.804;2023-04-24T04:15:18;100025.38;;;9.93;43.78
74631;BME280;63138;55.082;38.804;2023-04-24T04:17:44;100028.59;;;10.05;43.73
74631;BME280;63138;55.082;38.804;2023-04-24T04:20:11;100021.78;;;10.17;43.10
74631;BME280;63138;55.082;38.804;2023-04-24T04:22:39;100027.88;;;10.27;43.03
74631;BME280;63138;55.082;38.804;2023-04-24T04:25:08;100033.81;;;10.39;42.38
74631;BME280;63138;55.082;38.804;2023-04-24T04:27:35;100034.16;;;10.44;41.58
74631;BME280;63138;55.082;38.804;2023-04-24T04:30:08;100027.97;;;10.59;42.00
74631;BME280;63138;55.082;38.804;2023-04-24T04:32:50;100032.69;;;10.73;41.88
74631;BME280;63138;55.082;38.804;2023-04-24T04:35:16;100037.59;;;10.78;41.81
74631;BME280;63138;55.082;38.804;2023-04-24T04:37:43;100027.53;;;10.86;41.94
74631;BME280;63138;55.082;38.804;2023-04-24T04:40:34;100040.56;;;10.99;41.66
74631;BME280;63138;55.082;38.804;2023-04-24T04:43:04;100040.72;;;11.06;41.33
74631;BME280;63138;55.082;38.804;2023-04-24T04:45:37;100041.69;;;11.13;41.44
74631;BME280;63138;55.082;38.804;2023-04-24T04:48:28;100039.78;;;11.22;41.33
74631;BME280;63138;55.082;38.804;2023-04-24T04:50:57;100041.25;;;11.33;41.13
74631;BME280;63138;55.082;38.804;2023-04-24T04:53:24;100041.31;;;11.47;40.48
74631;BME280;63138;55.082;38.804;2023-04-24T04:55:52;100044.75;;;11.64;40.16
74631;BME280;63138;55.082;38.804;2023-04-24T04:58:19;100039.09;;;11.74;40.07
74631;BME280;63138;55.082;38.804;2023-04-24T05:00:50;100042.19;;;11.86;40.22
74631;BME280;63138;55.082;38.804;2023-04-24T05:03:24;100041.53;;;11.92;39.46
74631;BME280;63138;55.082;38.804;2023-04-24T05:06:05;100043.97;;;12.02;39.63
74631;BME280;63138;55.082;38.804;2023-04-24T05:08:35;100039.84;;;13.25;37.95
74631;BME280;63138;55.082;38.804;2023-04-24T05:11:03;100037.22;;;14.46;35.50
74631;BME280;63138;55.082;38.804;2023-04-24T05:13:54;100026.31;;;15.43;33.55
74631;BME280;63138;55.082;38.804;2023-04-24T05:16:28;100032.13;;;15.75;32.67
74631;BME280;63138;55.082;38.804;2023-04-24T05:18:55;100036.47;;;16.76;31.63
74631;BME280;63138;55.082;38.804;2023-04-24T05:21:40;100040.16;;;17.60;29.74
74631;BME280;63138;55.082;38.804;2023-04-24T05:24:10;100038.47;;;17.98;29.07
74631;BME280;63138;55.082;38.804;2023-04-24T05:27:02;100036.66;;;18.79;27.80
74631;BME280;63138;55.082;38.804;2023-04-24T05:29:34;100038.38;;;19.47;26.86
74631;BME280;63138;55.082;38.804;2023-04-24T05:32:00;100035.19;;;19.62;26.76
74631;BME280;63138;55.082;38.804;2023-04-24T05:34:29;100043.84;;;20.08;26.24
74631;BME280;63138;55.082;38.804;2023-04-24T05:36:56;100034.44;;;20.62;25.54
74631;BME280;63138;55.082;38.804;2023-04-24T05:39:22;100037.72;;;21.12;25.06
74631;BME280;63138;55.082;38.804;2023-04-24T05:41:50;100038.84;;;21.39;24.85
74631;BME280;63138;55.082;38.804;2023-04-24T05:44:17;100037.38;;;21.77;24.19
74631;BME280;63138;55.082;38.804;2023-04-24T05:46:43;100038.19;;;22.41;23.58
74631;BME280;63138;55.082;38.804;2023-04-24T05:52:34;100045.09;;;22.77;23.02
74631;BME280;63138;55.082;38.804;2023-04-24T05:55:04;100037.44;;;23.23;22.47
74631;BME280;63138;55.082;38.804;2023-04-24T05:57:33;100034.59;;;23.18;22.45
74631;BME280;63138;55.082;38.804;2023-04-24T06:00:04;100030.69;;;23.91;21.91
74631;BME280;63138;55.082;38.804;2023-04-24T06:02:39;100035.22;;;24.34;21.04
74631;BME280;63138;55.082;38.804;2023-04-24T06:05:09;100028.63;;;24.40;20.96
74631;BME280;63138;55.082;38.804;2023-04-24T06:07:36;100030.97;;;25.02;20.50
74631;BME280;63138;55.082;38.804;2023-04-24T06:10:04;100035.09;;;25.67;19.63
74631;BME280;63138;55.082;38.804;2023-04-24T06:12:39;100026.88;;;25.19;20.02
74631;BME280;63138;55.082;38.804;2023-04-24T06:15:31;100035.63;;;25.49;19.89
74631;BME280;63138;55.082;38.804;2023-04-24T06:18:04;100041.56;;;26.60;19.13
74631;BME280;63138;55.082;38.804;2023-04-24T06:20:32;100035.13;;;26.75;18.64
74631;BME280;63138;55.082;38.804;2023-04-24T06:22:59;100027.94;;;26.69;18.51
74631;BME280;63138;55.082;38.804;2023-04-24T06:25:25;100028.19;;;26.47;18.54
74631;BME280;63138;55.082;38.804;2023-04-24T06:27:52;100031.53;;;26.54;18.09
74631;BME280;63138;55.082;38.804;2023-04-24T06:30:19;100040.28;;;27.23;17.86
74631;BME280;63138;55.082;38.804;2023-04-24T06:32:45;100037.97;;;27.95;17.55
74631;BME280;63138;55.082;38.804;2023-04-24T06:35:11;100044.41;;;27.91;16.99
74631;BME280;63138;55.082;38.804;2023-04-24T06:37:41;100040.09;;;28.09;16.93
74631;BME280;63138;55.082;38.804;2023-04-24T06:40:09;100036.13;;;27.75;16.19
74631;BME280;63138;55.082;38.804;2023-04-24T06:42:54;100041.63;;;27.85;16.44
74631;BME280;63138;55.082;38.804;2023-04-24T06:45:21;100032.03;;;27.62;15.94
74631;BME280;63138;55.082;38.804;2023-04-24T06:47:47;100036.41;;;27.74;15.90
74631;BME280;63138;55.082;38.804;2023-04-24T06:50:15;100043.59;;;28.25;15.54
74631;BME280;63138;55.082;38.804;2023-04-24T06:52:41;100038.44;;;28.08;14.87
74631;BME280;63138;55.082;38.804;2023-04-24T06:55:07;100040.78;;;27.90;14.75
74631;BME280;63138;55.082;38.804;2023-04-24T07:00:48;100034.72;;;27.73;14.55
74631;BME280;63138;55.082;38.804;2023-04-24T07:03:15;100047.53;;;28.24;14.02
74631;BME280;63138;55.082;38.804;2023-04-24T07:05:43;100037.50;;;28.17;13.83
74631;BME280;63138;55.082;38.804;2023-04-24T07:08:09;100028.16;;;28.67;13.70
74631;BME280;63138;55.082;38.804;2023-04-24T07:10:37;100042.59;;;27.65;14.00
74631;BME280;63138;55.082;38.804;2023-04-24T07:13:03;100035.97;;;28.65;13.60
74631;BME280;63138;55.082;38.804;2023-04-24T07:15:32;100038.69;;;28.11;14.02
74631;BME280;63138;55.082;38.804;2023-04-24T07:18:24;100038.09;;;27.15;14.65
74631;BME280;63138;55.082;38.804;2023-04-24T07:20:50;100037.13;;;27.45;14.01
74631;BME280;63138;55.082;38.804;2023-04-24T07:23:16;100042.28;;;27.12;14.18
74631;BME280;63138;55.082;38.804;2023-04-24T07:25:43;100033.41;;;27.05;14.47
74631;BME280;63138;55.082;38.804;2023-04-24T07:28:09;100036.75;;;26.92;13.39
74631;BME280;63138;55.082;38.804;2023-04-24T07:30:35;100027.97;;;26.02;14.49
74631;BME280;63138;55.082;38.804;2023-04-24T07:33:01;100039.28;;;26.83;14.25
74631;BME280;63138;55.082;38.804;2023-04-24T07:35:28;100034.56;;;26.83;13.93
74631;BME280;63138;55.082;38.804;2023-04-24T07:38:21;100030.88;;;27.08;13.82
74631;BME280;63138;55.082;38.804;2023-04-24T07:40:49;100028.31;;;27.77;13.25
74631;BME280;63138;55.082;38.804;2023-04-24T07:43:15;100027.66;;;27.85;13.47
74631;BME280;63138;55.082;38.804;2023-04-24T07:45:41;100021.69;;;27.63;12.99
74631;BME280;63138;55.082;38.804;2023-04-24T07:48:08;100025.34;;;26.93;13.28
74631;BME280;63138;55.082;38.804;2023-04-24T07:50:53;100027.63;;;25.83;13.90
74631;BME280;63138;55.082;38.804;2023-04-24T07:53:20;100023.50;;;26.06;13.72
74631;BME280;63138;55.082;38.804;2023-04-24T07:55:46;100018.78;;;26.17;13.48
74631;BME280;63138;55.082;38.804;2023-04-24T07:58:12;100031.22;;;25.89;13.55
74631;BME280;63138;55.082;38.804;2023-04-24T08:00:38;100025.06;;;25.56;13.93
74631;BME280;63138;55.082;38.804;2023-04-24T08:03:06;100022.22;;;24.72;14.29
74631;BME280;63138;55.082;38.804;2023-04-24T08:05:32;100027.34;;;25.06;14.34
74631;BME280;63138;55.082;38.804;2023-04-24T08:07:58;100019.25;;;24.94;14.85
74631;BME280;63138;55.082;38.804;2023-04-24T08:10:24;100017.50;;;25.31;14.49
74631;BME280;63138;55.082;38.804;2023-04-24T08:12:51;100028.78;;;26.23;13.83
74631;BME280;63138;55.082;38.804;2023-04-24T08:15:19;100008.75;;;26.21;13.96
74631;BME280;63138;55.082;38.804;2023-04-24T08:17:45;100020.19;;;26.15;13.96
74631;BME280;63138;55.082;38.804;2023-04-24T08:20:14;99992.06;;;26.06;13.78
74631;BME280;63138;55.082;38.804;2023-04-24T08:22:42;99995.91;;;25.79;13.67
74631;BME280;63138;55.082;38.804;2023-04-24T08:25:30;100004.69;;;25.25;13.88
74631;BME280;63138;55.082;38.804;2023-04-24T08:27:56;100020.00;;;24.37;14.70
74631;BME280;63138;55.082;38.804;2023-04-24T08:30:24;99994.47;;;24.83;14.60
74631;BME280;63138;55.082;38.804;2023-04-24T08:32:51;100006.72;;;24.44;14.97
74631;BME280;63138;55.082;38.804;2023-04-24T08:35:29;99989.91;;;24.23;15.55
74631;BME280;63138;55.082;38.804;2023-04-24T08:38:20;99999.63;;;25.16;15.39
74631;BME280;63138;55.082;38.804;2023-04-24T08:41:09;99994.59;;;25.03;15.09
74631;BME280;63138;55.082;38.804;2023-04-24T08:43:36;99980.63;;;24.88;15.68
74631;BME280;63138;55.082;38.804;2023-04-24T08:46:04;99985.84;;;25.42;15.27
74631;BME280;63138;55.082;38.804;2023-04-24T08:48:32;99990.88;;;25.55;15.10
74631;BME280;63138;55.082;38.804;2023-04-24T08:50:59;99988.44;;;24.96;15.79
74631;BME280;63138;55.082;38.804;2023-04-24T08:53:25;99983.03;;;25.37;15.74
74631;BME280;63138;55.082;38.804;2023-04-24T08:55:54;99982.56;;;25.71;14.67
74631;BME280;63138;55.082;38.804;2023-04-24T08:58:27;99980.91;;;25.90;14.97
74631;BME280;63138;55.082;38.804;2023-04-24T09:00:55;99972.03;;;25.93;14.42
74631;BME280;63138;55.082;38.804;2023-04-24T09:03:24;99966.72;;;25.82;14.47
74631;BME280;63138;55.082;38.804;2023-04-24T09:05:55;99970.28;;;25.41;14.55
74631;BME280;63138;55.082;38.804;2023-04-24T09:08:46;99956.28;;;25.10;14.85
74631;BME280;63138;55.082;38.804;2023-04-24T09:11:15;99956.19;;;24.37;15.39
74631;BME280;63138;55.082;38.804;2023-04-24T09:14:07;99949.03;;;25.09;15.20
74631;BME280;63138;55.082;38.804;2023-04-24T09:16:35;99953.53;;;25.21;15.01
74631;BME280;63138;55.082;38.804;2023-04-24T09:19:27;99958.84;;;25.27;14.76
74631;BME280;63138;55.082;38.804;2023-04-24T09:21:53;99956.63;;;25.24;14.57
74631;BME280;63138;55.082;38.804;2023-04-24T09:24:21;99940.69;;;24.99;14.73
74631;BME280;63138;55.082;38.804;2023-04-24T09:26:58;99952.44;;;24.58;15.19
74631;BME280;63138;55.082;38.804;2023-04-24T09:29:25;99941.88;;;25.24;14.91
74631;BME280;63138;55.082;38.804;2023-04-24T09:31:51;99951.44;;;24.80;15.07
74631;BME280;63138;55.082;38.804;2023-04-24T09:34:22;99949.41;;;24.60;15.66
74631;BME280;63138;55.082;38.804;2023-04-24T09:36:53;99941.81;;;25.03;14.92
74631;BME280;63138;55.082;38.804;2023-04-24T09:39:45;99937.84;;;24.84;15.13
74631;BME280;63138;55.082;38.804;2023-04-24T09:42:17;99947.88;;;24.95;15.23
74631;BME280;63138;55.082;38.804;2023-04-24T09:44:44;99933.41;;;24.35;15.51
74631;BME280;63138;55.082;38.804;2023-04-24T09:47:19;99946.00;;;23.78;15.99
74631;BME280;63138;55.082;38.804;2023-04-24T09:49:44;99942.97;;;24.12;16.04
74631;BME280;63138;55.082;38.804;2023-04-24T09:52:11;99930.19;;;24.11;16.22
74631;BME280;63138;55.082;38.804;2023-04-24T09:54:38;99939.78;;;23.65;16.20
74631;BME280;63138;55.082;38.804;2023-04-24T09:57:04;99939.91;;;22.99;16.69
74631;BME280;63138;55.082;38.804;2023-04-24T09:59:31;99928.59;;;23.50;16.40
74631;BME280;63138;55.082;38.804;2023-04-24T10:01:59;99933.03;;;23.02;16.44
74631;BME280;63138;55.082;38.804;2023-04-24T10:04:28;99936.44;;;22.65;17.15
74631;BME280;63138;55.082;38.804;2023-04-24T10:06:55;99927.25;;;22.81;17.42
74631;BME280;63138;55.082;38.804;2023-04-24T10:09:25;99910.00;;;22.74;16.90
74631;BME280;63138;55.082;38.804;2023-04-24T10:11:54;99931.41;;;22.23;17.24
74631;BME280;63138;55.082;38.804;2023-04-24T10:14:23;99921.00;;;22.91;17.19
74631;BME280;63138;55.082;38.804;2023-04-24T10:16:53;99929.94;;;22.98;16.99
74631;BME280;63138;55.082;38.804;2023-04-24T10:19:26;99933.47;;;22.27;16.80
74631;BME280;63138;55.082;38.804;2023-04-24T10:21:53;99928.28;;;21.97;17.80
74631;BME280;63138;55.082;38.804;2023-04-24T10:24:21;99932.19;;;22.35;17.43
74631;BME280;63138;55.082;38.804;2023-04-24T10:27:13;99921.06;;;22.74;17.28
74631;BME280;63138;55.082;38.804;2023-04-24T10:29:43;99911.41;;;22.15;17.35
74631;BME280;63138;55.082;38.804;2023-04-24T10:32:15;99918.38;;;22.57;17.11
74631;BME280;63138;55.082;38.804;2023-04-24T10:34:41;99908.44;;;22.39;17.26
74631;BME280;63138;55.082;38.804;2023-04-24T10:37:09;99894.63;;;22.61;17.41
74631;BME280;63138;55.082;38.804;2023-04-24T10:39:36;99907.81;;;22.54;17.51
74631;BME280;63138;55.082;38.804;2023-04-24T10:42:16;99890.97;;;22.17;17.40
74631;BME280;63138;55.082;38.804;2023-04-24T10:44:42;99915.03;;;21.99;17.71
74631;BME280;63138;55.082;38.804;2023-04-24T10:47:15;99914.41;;;21.46;17.78
74631;BME280;63138;55.082;38.804;2023-04-24T10:49:41;99911.31;;;21.14;18.28
74631;BME280;63138;55.082;38.804;2023-04-24T10:52:08;99895.44;;;21.50;18.56
74631;BME280;63138;55.082;38.804;2023-04-24T10:57:33;99886.91;;;21.68;18.41
74631;BME280;63138;55.082;38.804;2023-04-24T11:00:14;99903.97;;;21.65;18.39
74631;BME280;63138;55.082;38.804;2023-04-24T11:03:33;99900.63;;;21.46;18.41
74631;BME280;63138;55.082;38.804;2023-04-24T11:06:07;99892.53;;;21.73;18.13
74631;BME280;63138;55.082;38.804;2023-04-24T11:08:44;99899.97;;;21.73;18.09
74631;BME280;63138;55.082;38.804;2023-04-24T11:11:15;99889.91;;;21.21;18.78
74631;BME280;63138;55.082;38.804;2023-04-24T11:16:44;99885.41;;;21.77;18.31
74631;BME280;63138;55.082;38.804;2023-04-24T11:22:05;99879.38;;;22.37;18.17
74631;BME280;63138;55.082;38.804;2023-04-24T11:27:43;99859.59;;;21.89;18.29
74631;BME280;63138;55.082;38.804;2023-04-24T11:30:10;99870.66;;;21.55;18.07
74631;BME280;63138;55.082;38.804;2023-04-24T11:32:38;99866.97;;;21.83;18.18
74631;BME280;63138;55.082;38.804;2023-04-24T11:35:08;99868.97;;;21.88;18.19
74631;BME280;63138;55.082;38.804;2023-04-24T11:37:37;99855.94;;;22.05;17.99
74631;BME280;63138;55.082;38.804;2023-04-24T11:40:07;99867.66;;;21.73;18.52
74631;BME280;63138;55.082;38.804;2023-04-24T11:42:38;99864.88;;;21.39;18.44
74631;BME280;63138;55.082;38.804;2023-04-24T11:45:18;99868.69;;;21.38;18.59
74631;BME280;63138;55.082;38.804;2023-04-24T11:47:45;99864.19;;;21.32;18.76
74631;BME280;63138;55.082;38.804;2023-04-24T11:50:15;99854.09;;;21.55;18.60
74631;BME280;63138;55.082;38.804;2023-04-24T11:52:44;99854.63;;;21.40;18.45
74631;BME280;63138;55.082;38.804;2023-04-24T11:55:41;99843.16;;;21.14;18.91
74631;BME280;63138;55.082;38.804;2023-04-24T11:58:35;99842.47;;;21.07;19.13
74631;BME280;63138;55.082;38.804;2023-04-24T12:01:05;99838.56;;;21.20;19.01
74631;BME280;63138;55.082;38.804;2023-04-24T12:03:31;99844.53;;;21.29;18.74
74631;BME280;63138;55.082;38.804;2023-04-24T12:06:08;99842.63;;;21.00;18.78
74631;BME280;63138;55.082;38.804;2023-04-24T12:08:35;99840.03;;;21.56;18.44
74631;BME280;63138;55.082;38.804;2023-04-24T12:11:07;99838.16;;;21.62;18.19
74631;BME280;63138;55.082;38.804;2023-04-24T12:13:36;99836.31;;;21.68;18.42
74631;BME280;63138;55.082;38.804;2023-04-24T12:16:03;99842.75;;;21.23;18.48
74631;BME280;63138;55.082;38.804;2023-04-24T12:18:31;99822.50;;;21.17;19.02
74631;BME280;63138;55.082;38.804;2023-04-24T12:21:21;99842.97;;;21.21;18.70
74631;BME280;63138;55.082;38.804;2023-04-24T12:23:48;99842.91;;;21.16;18.83
74631;BME280;63138;55.082;38.804;2023-04-24T12:26:45;99840.44;;;21.03;18.93
74631;BME280;63138;55.082;38.804;2023-04-24T12:29:19;99833.97;;;21.09;19.05
74631;BME280;63138;55.082;38.804;2023-04-24T12:31:48;99844.66;;;21.22;19.18
74631;BME280;63138;55.082;38.804;2023-04-24T12:34:23;99830.50;;;21.02;18.99
74631;BME280;63138;55.082;38.804;2023-04-24T12:36:49;99829.19;;;21.21;19.09
74631;BME280;63138;55.082;38.804;2023-04-24T12:39:17;99828.97;;;21.39;19.18
74631;BME280;63138;55.082;38.804;2023-04-24T12:41:54;99833.75;;;20.98;19.10
74631;BME280;63138;55.082;38.804;2023-04-24T12:44:48;99821.16;;;20.74;19.40
74631;BME280;63138;55.082;38.804;2023-04-24T12:47:17;99823.03;;;20.85;19.39
74631;BME280;63138;55.082;38.804;2023-04-24T12:49:44;99822.75;;;20.70;19.63
74631;BME280;63138;55.082;38.804;2023-04-24T12:52:11;99808.72;;;20.59;19.46
74631;BME280;63138;55.082;38.804;2023-04-24T12:54:38;99814.53;;;20.46;19.58
74631;BME280;63138;55.082;38.804;2023-04-24T12:57:05;99809.50;;;20.43;19.51
74631;BME280;63138;55.082;38.804;2023-04-24T12:59:31;99807.19;;;20.52;19.65
74631;BME280;63138;55.082;38.804;2023-04-24T13:01:59;99792.84;;;20.38;19.66
74631;BME280;63138;55.082;38.804;2023-04-24T13:04:25;99806.44;;;20.68;19.34
74631;BME280;63138;55.082;38.804;2023-04-24T13:06:52;99803.22;;;20.88;19.13
74631;BME280;63138;55.082;38.804;2023-04-24T13:09:18;99800.97;;;21.02;19.22
74631;BME280;63138;55.082;38.804;2023-04-24T13:11:45;99797.16;;;21.20;18.98
74631;BME280;63138;55.082;38.804;2023-04-24T13:14:11;99789.97;;;21.53;18.62
74631;BME280;63138;55.082;38.804;2023-04-24T13:16:37;99780.91;;;21.74;18.69
74631;BME280;63138;55.082;38.804;2023-04-24T13:19:03;99794.03;;;21.84;18.24
74631;BME280;63138;55.082;38.804;2023-04-24T13:21:31;99786.44;;;21.96;18.19
74631;BME280;63138;55.082;38.804;2023-04-24T13:23:57;99780.03;;;21.52;18.44
74631;BME280;63138;55.082;38.804;2023-04-24T13:26:24;99775.91;;;21.54;18.17
74631;BME280;63138;55.082;38.804;2023-04-24T13:28:52;99779.75;;;21.70;18.10